sensor_id;sensor_type;location;lat;lon;timestamp;pressure;altitude;pressure_sealevel;temperature;humidity
60583;BME280;46415;47.536;19.066;2023-05-12T00:00:24;-18529.59;;;11.05;100.00
60583;BME280;46415;47.536;19.066;2023-05-12T00:03:27;-18528.38;;;11.00;100.00
60583;BME280;46415;47.536;19.066;2023-05-12T00:06:30;-18527.81;;;10.98;100.00
60583;BME280;46415;47.536;19.066;2023-05-12T00:09:33;-18526.16;;;10.92;100.00
60583;BME280;46415;47.536;19.066;2023-05-12T00:12:36;-18526.59;;;10.94;100.00
60583;BME280;46415;47.536;19.066;2023-05-12T00:15:39;-18527.00;;;10.95;100.00
60583;BME280;46415;47.536;19.066;2023-05-12T00:18:41;-18528.38;;;11.00;100.00
60583;BME280;46415;47.536;19.066;2023-05-12T00:21:45;-18528.22;;;11.00;100.00
60583;BME280;46415;47.536;19.066;2023-05-12T00:24:48;-18528.22;;;11.00;100.00
60583;BME280;46415;47.536;19.066;2023-05-12T00:27:51;-18527.81;;;10.98;100.00
60583;BME280;46415;47.536;19.066;2023-05-12T00:30:53;-18526.72;;;10.94;100.00
60583;BME280;46415;47.536;19.066;2023-05-12T00:33:56;-18527.94;;;10.99;100.00
60583;BME280;46415;47.536;19.066;2023-05-12T00:36:59;-18527.12;;;10.96;100.00
60583;BME280;46415;47.536;19.066;2023-05-12T00:40:02;-18526.16;;;10.92;100.00
60583;BME280;46415;47.536;19.066;2023-05-12T00:43:06;-18527.94;;;10.99;100.00
60583;BME280;46415;47.536;19.066;2023-05-12T00:46:10;-18528.38;;;11.00;100.00
60583;BME280;46415;47.536;19.066;2023-05-12T00:49:13;-18530.56;;;11.09;100.00
60583;BME280;46415;47.536;19.066;2023-05-12T00:52:16;-18531.38;;;11.12;100.00
60583;BME280;46415;47.536;19.066;2023-05-12T00:55:18;-18532.75;;;11.17;100.00
60583;BME280;46415;47.536;19.066;2023-05-12T00:58:22;-18533.84;;;11.21;100.00
60583;BME280;46415;47.536;19.066;2023-05-12T01:01:25;-18536.44;;;11.30;100.00
60583;BME280;46415;47.536;19.066;2023-05-12T01:04:29;-18536.31;;;11.30;100.00
60583;BME280;46415;47.536;19.066;2023-05-12T01:07:32;-18538.22;;;11.37;100.00
60583;BME280;46415;47.536;19.066;2023-05-12T01:10:35;-18537.13;;;11.33;100.00
60583;BME280;46415;47.536;19.066;2023-05-12T01:13:38;-18536.03;;;11.29;100.00
60583;BME280;46415;47.536;19.066;2023-05-12T01:16:52;-18536.31;;;11.30;100.00
60583;BME280;46415;47.536;19.066;2023-05-12T01:19:59;-18537.53;;;11.34;100.00
60583;BME280;46415;47.536;19.066;2023-05-12T01:23:04;-18537.53;;;11.34;100.00
60583;BME280;46415;47.536;19.066;2023-05-12T01:26:08;-18537.81;;;11.35;100.00
60583;BME280;46415;47.536;19.066;2023-05-12T01:29:12;-18537.81;;;11.35;100.00
60583;BME280;46415;47.536;19.066;2023-05-12T01:32:15;-18537.94;;;11.36;100.00
60583;BME280;46415;47.536;19.066;2023-05-12T01:35:18;-18533.84;;;11.21;100.00
60583;BME280;46415;47.536;19.066;2023-05-12T01:38:21;-18532.59;;;11.16;100.00
60583;BME280;46415;47.536;19.066;2023-05-12T01:41:24;-18532.19;;;11.15;100.00
60583;BME280;46415;47.536;19.066;2023-05-12T01:44:27;-18531.78;;;11.13;100.00
60583;BME280;46415;47.536;19.066;2023-05-12T01:47:30;-18531.50;;;11.12;100.00
60583;BME280;46415;47.536;19.066;2023-05-12T01:50:34;-18529.31;;;11.04;100.00
60583;BME280;46415;47.536;19.066;2023-05-12T01:53:38;-18527.53;;;10.97;100.00
60583;BME280;46415;47.536;19.066;2023-05-12T01:56:41;-18526.84;;;10.95;100.00
60583;BME280;46415;47.536;19.066;2023-05-12T01:59:45;-18526.72;;;10.94;100.00
60583;BME280;46415;47.536;19.066;2023-05-12T02:02:47;-18529.47;;;11.04;100.00
60583;BME280;46415;47.536;19.066;2023-05-12T02:05:50;-18527.12;;;10.96;100.00
60583;BME280;46415;47.536;19.066;2023-05-12T02:08:53;-18528.09;;;10.99;100.00
60583;BME280;46415;47.536;19.066;2023-05-12T02:11:56;-18527.81;;;10.98;100.00
60583;BME280;46415;47.536;19.066;2023-05-12T02:14:59;-18527.94;;;10.99;100.00
60583;BME280;46415;47.536;19.066;2023-05-12T02:18:02;-18528.78;;;11.02;100.00
60583;BME280;46415;47.536;19.066;2023-05-12T02:21:06;-18528.38;;;11.00;100.00
60583;BME280;46415;47.536;19.066;2023-05-12T02:24:09;-18527.25;;;10.96;100.00
60583;BME280;46415;47.536;19.066;2023-05-12T02:27:13;-18528.63;;;11.01;100.00
60583;BME280;46415;47.536;19.066;2023-05-12T02:30:16;-18530.00;;;11.07;100.00
60583;BME280;46415;47.536;19.066;2023-05-12T02:33:20;-18529.72;;;11.05;100.00
60583;BME280;46415;47.536;19.066;2023-05-12T02:36:24;-18527.41;;;10.97;100.00
60583;BME280;46415;47.536;19.066;2023-05-12T02:39:27;-18527.00;;;10.95;100.00
60583;BME280;46415;47.536;19.066;2023-05-12T02:42:31;-18524.13;;;10.85;100.00
60583;BME280;46415;47.536;19.066;2023-05-12T02:45:37;-18524.13;;;10.85;100.00
60583;BME280;46415;47.536;19.066;2023-05-12T02:48:40;-18523.16;;;10.81;100.00
60583;BME280;46415;47.536;19.066;2023-05-12T02:51:43;-18522.62;;;10.79;100.00
60583;BME280;46415;47.536;19.066;2023-05-12T02:54:46;-18524.25;;;10.85;100.00
60583;BME280;46415;47.536;19.066;2023-05-12T02:57:48;-18523.44;;;10.82;100.00
60583;BME280;46415;47.536;19.066;2023-05-12T03:00:51;-18522.88;;;10.80;100.00
60583;BME280;46415;47.536;19.066;2023-05-12T03:04:08;-18521.94;;;10.77;100.00
60583;BME280;46415;47.536;19.066;2023-05-12T03:07:11;-18519.31;;;10.67;100.00
60583;BME280;46415;47.536;19.066;2023-05-12T03:10:16;-18518.50;;;10.64;100.00
60583;BME280;46415;47.536;19.066;2023-05-12T03:13:20;-18519.06;;;10.66;100.00
60583;BME280;46415;47.536;19.066;2023-05-12T03:16:22;-18520.28;;;10.71;100.00
60583;BME280;46415;47.536;19.066;2023-05-12T03:19:25;-18519.88;;;10.69;100.00
60583;BME280;46415;47.536;19.066;2023-05-12T03:22:31;-18518.78;;;10.65;100.00
60583;BME280;46415;47.536;19.066;2023-05-12T03:25:34;-18519.75;;;10.69;100.00
60583;BME280;46415;47.536;19.066;2023-05-12T03:28:36;-18520.56;;;10.72;100.00
60583;BME280;46415;47.536;19.066;2023-05-12T03:31:39;-18520.00;;;10.70;100.00
60583;BME280;46415;47.536;19.066;2023-05-12T03:34:43;-18518.78;;;10.65;100.00
60583;BME280;46415;47.536;19.066;2023-05-12T03:37:46;-18518.91;;;10.66;100.00
60583;BME280;46415;47.536;19.066;2023-05-12T03:40:49;-18518.66;;;10.64;100.00
60583;BME280;46415;47.536;19.066;2023-05-12T03:43:55;-18518.91;;;10.66;100.00
60583;BME280;46415;47.536;19.066;2023-05-12T03:46:57;-18519.31;;;10.67;100.00
60583;BME280;46415;47.536;19.066;2023-05-12T03:50:01;-18518.91;;;10.66;100.00
60583;BME280;46415;47.536;19.066;2023-05-12T03:53:04;-18518.38;;;10.63;100.00
60583;BME280;46415;47.536;19.066;2023-05-12T03:56:10;-18518.78;;;10.65;100.00
60583;BME280;46415;47.536;19.066;2023-05-12T03:59:12;-18519.06;;;10.66;100.00
60583;BME280;46415;47.536;19.066;2023-05-12T04:02:15;-18519.59;;;10.68;100.00
60583;BME280;46415;47.536;19.066;2023-05-12T04:05:20;-18520.56;;;10.72;100.00
60583;BME280;46415;47.536;19.066;2023-05-12T04:08:23;-18520.28;;;10.71;100.00
60583;BME280;46415;47.536;19.066;2023-05-12T04:11:26;-18521.09;;;10.74;100.00
60583;BME280;46415;47.536;19.066;2023-05-12T04:14:29;-18520.56;;;10.72;100.00
60583;BME280;46415;47.536;19.066;2023-05-12T04:17:44;-18520.69;;;10.72;100.00
60583;BME280;46415;47.536;19.066;2023-05-12T04:20:47;-18519.31;;;10.67;100.00
60583;BME280;46415;47.536;19.066;2023-05-12T04:23:50;-18521.09;;;10.74;100.00
60583;BME280;46415;47.536;19.066;2023-05-12T04:26:57;-18520.56;;;10.72;100.00
60583;BME280;46415;47.536;19.066;2023-05-12T04:30:00;-18521.78;;;10.76;100.00
60583;BME280;46415;47.536;19.066;2023-05-12T04:33:06;-18524.25;;;10.85;100.00
60583;BME280;46415;47.536;19.066;2023-05-12T04:36:10;-18525.34;;;10.89;100.00
60583;BME280;46415;47.536;19.066;2023-05-12T04:39:15;-18525.63;;;10.90;100.00
60583;BME280;46415;47.536;19.066;2023-05-12T04:42:18;-18526.84;;;10.95;100.00
60583;BME280;46415;47.536;19.066;2023-05-12T04:45:21;-18528.91;;;11.02;100.00
60583;BME280;46415;47.536;19.066;2023-05-12T04:48:26;-18530.28;;;11.08;100.00
60583;BME280;46415;47.536;19.066;2023-05-12T04:51:31;-18529.19;;;11.03;100.00
60583;BME280;46415;47.536;19.066;2023-05-12T04:54:34;-18530.28;;;11.08;100.00
60583;BME280;46415;47.536;19.066;2023-05-12T04:57:36;-18534.38;;;11.23;100.00
60583;BME280;46415;47.536;19.066;2023-05-12T05:00:43;-18534.94;;;11.25;100.00
60583;BME280;46415;47.536;19.066;2023-05-12T05:03:46;-18534.66;;;11.24;100.00
60583;BME280;46415;47.536;19.066;2023-05-12T05:06:49;-18533.69;;;11.20;100.00
60583;BME280;46415;47.536;19.066;2023-05-12T05:09:53;-18534.94;;;11.25;100.00
60583;BME280;46415;47.536;19.066;2023-05-12T05:12:56;-18533.44;;;11.19;100.00
60583;BME280;46415;47.536;19.066;2023-05-12T05:15:59;-18532.06;;;11.14;100.00
60583;BME280;46415;47.536;19.066;2023-05-12T05:19:02;-18533.00;;;11.18;100.00
60583;BME280;46415;47.536;19.066;2023-05-12T05:22:10;-18534.53;;;11.23;100.00
60583;BME280;46415;47.536;19.066;2023-05-12T05:25:13;-18534.78;;;11.24;100.00
60583;BME280;46415;47.536;19.066;2023-05-12T05:28:16;-18536.31;;;11.30;100.00
60583;BME280;46415;47.536;19.066;2023-05-12T05:31:20;-18538.91;;;11.39;100.00
60583;BME280;46415;47.536;19.066;2023-05-12T05:34:23;-18540.13;;;11.44;100.00
60583;BME280;46415;47.536;19.066;2023-05-12T05:37:26;-18538.22;;;11.37;100.00
60583;BME280;46415;47.536;19.066;2023-05-12T05:40:29;-18538.63;;;11.38;100.00
60583;BME280;46415;47.536;19.066;2023-05-12T05:43:46;-18539.59;;;11.42;100.00
60583;BME280;46415;47.536;19.066;2023-05-12T05:46:49;-18541.38;;;11.49;100.00
60583;BME280;46415;47.536;19.066;2023-05-12T05:49:53;-18541.62;;;11.50;100.00
60583;BME280;46415;47.536;19.066;2023-05-12T05:52:57;-18541.38;;;11.49;100.00
60583;BME280;46415;47.536;19.066;2023-05-12T05:56:01;-18542.03;;;11.51;100.00
60583;BME280;46415;47.536;19.066;2023-05-12T05:59:04;-18541.22;;;11.48;100.00
60583;BME280;46415;47.536;19.066;2023-05-12T06:02:08;-18540.00;;;11.43;100.00
60583;BME280;46415;47.536;19.066;2023-05-12T06:05:11;-18542.47;;;11.53;100.00
60583;BME280;46415;47.536;19.066;2023-05-12T06:08:15;-18542.03;;;11.51;100.00
60583;BME280;46415;47.536;19.066;2023-05-12T06:11:18;-18543.41;;;11.56;100.00
60583;BME280;46415;47.536;19.066;2023-05-12T06:14:22;-18543.69;;;11.57;100.00
60583;BME280;46415;47.536;19.066;2023-05-12T06:17:25;-18544.91;;;11.62;100.00
60583;BME280;46415;47.536;19.066;2023-05-12T06:20:28;-18545.59;;;11.64;100.00
60583;BME280;46415;47.536;19.066;2023-05-12T06:23:31;-18548.19;;;11.74;100.00
60583;BME280;46415;47.536;19.066;2023-05-12T06:26:35;-18547.53;;;11.71;100.00
60583;BME280;46415;47.536;19.066;2023-05-12T06:29:38;-18549.44;;;11.78;100.00
60583;BME280;46415;47.536;19.066;2023-05-12T06:32:40;-18550.94;;;11.84;100.00
60583;BME280;46415;47.536;19.066;2023-05-12T06:35:43;-18553.25;;;11.93;100.00
60583;BME280;46415;47.536;19.066;2023-05-12T06:38:46;-18553.81;;;11.95;100.00
60583;BME280;46415;47.536;19.066;2023-05-12T06:41:49;-18556.00;;;12.03;100.00
60583;BME280;46415;47.536;19.066;2023-05-12T06:44:53;-18554.22;;;11.96;100.00
60583;BME280;46415;47.536;19.066;2023-05-12T06:47:56;-18555.59;;;12.01;100.00
60583;BME280;46415;47.536;19.066;2023-05-12T06:51:02;-18555.19;;;12.00;100.00
60583;BME280;46415;47.536;19.066;2023-05-12T06:54:05;-18557.38;;;12.08;100.00
60583;BME280;46415;47.536;19.066;2023-05-12T06:57:08;-18554.91;;;11.99;100.00
60583;BME280;46415;47.536;19.066;2023-05-12T07:00:12;-18554.38;;;11.97;100.00
60583;BME280;46415;47.536;19.066;2023-05-12T07:03:15;-18557.91;;;12.10;100.00
60583;BME280;46415;47.536;19.066;2023-05-12T07:06:19;-18556.53;;;12.05;100.00
60583;BME280;46415;47.536;19.066;2023-05-12T07:09:22;-18558.19;;;12.11;100.00
60583;BME280;46415;47.536;19.066;2023-05-12T07:12:25;-18557.91;;;12.10;100.00
60583;BME280;46415;47.536;19.066;2023-05-12T07:15:30;-18556.41;;;12.04;100.00
60583;BME280;46415;47.536;19.066;2023-05-12T07:18:34;-18559.56;;;12.16;100.00
60583;BME280;46415;47.536;19.066;2023-05-12T07:21:37;-18567.63;;;12.46;100.00
60583;BME280;46415;47.536;19.066;2023-05-12T07:24:40;-18574.03;;;12.69;100.00
60583;BME280;46415;47.536;19.066;2023-05-12T07:27:43;-18579.25;;;12.89;100.00
60583;BME280;46415;47.536;19.066;2023-05-12T07:30:46;-18583.75;;;13.05;100.00
60583;BME280;46415;47.536;19.066;2023-05-12T07:33:49;-18585.53;;;13.12;100.00
60583;BME280;46415;47.536;19.066;2023-05-12T07:36:51;-18587.16;;;13.18;100.00
60583;BME280;46415;47.536;19.066;2023-05-12T07:39:54;-18590.84;;;13.32;100.00
60583;BME280;46415;47.536;19.066;2023-05-12T07:42:57;-18590.03;;;13.29;100.00
60583;BME280;46415;47.536;19.066;2023-05-12T07:46:00;-18585.53;;;13.12;100.00
60583;BME280;46415;47.536;19.066;2023-05-12T07:49:05;-18585.53;;;13.12;100.00
60583;BME280;46415;47.536;19.066;2023-05-12T07:52:08;-18586.91;;;13.17;100.00
60583;BME280;46415;47.536;19.066;2023-05-12T07:55:11;-18582.78;;;13.02;100.00
60583;BME280;46415;47.536;19.066;2023-05-12T07:58:13;-18586.75;;;13.17;100.00
60583;BME280;46415;47.536;19.066;2023-05-12T08:01:17;-18590.44;;;13.30;100.00
60583;BME280;46415;47.536;19.066;2023-05-12T08:04:19;-18593.44;;;13.41;100.00
60583;BME280;46415;47.536;19.066;2023-05-12T08:07:22;-18594.41;;;13.45;100.00
60583;BME280;46415;47.536;19.066;2023-05-12T08:10:25;-18593.44;;;13.41;100.00
60583;BME280;46415;47.536;19.066;2023-05-12T08:13:31;-18593.88;;;13.43;100.00
60583;BME280;46415;47.536;19.066;2023-05-12T08:16:33;-18594.28;;;13.44;100.00
60583;BME280;46415;47.536;19.066;2023-05-12T08:19:36;-18596.19;;;13.52;100.00
60583;BME280;46415;47.536;19.066;2023-05-12T08:22:39;-18596.19;;;13.52;100.00
60583;BME280;46415;47.536;19.066;2023-05-12T08:25:42;-18596.72;;;13.54;100.00
60583;BME280;46415;47.536;19.066;2023-05-12T08:28:46;-18598.91;;;13.62;100.00
60583;BME280;46415;47.536;19.066;2023-05-12T08:31:48;-18604.38;;;13.82;100.00
60583;BME280;46415;47.536;19.066;2023-05-12T08:34:51;-18608.19;;;13.96;100.00
60583;BME280;46415;47.536;19.066;2023-05-12T08:37:55;-18612.03;;;14.10;100.00
60583;BME280;46415;47.536;19.066;2023-05-12T08:41:30;-18616.53;;;14.27;100.00
60583;BME280;46415;47.536;19.066;2023-05-12T08:44:36;-18626.09;;;14.62;100.00
60583;BME280;46415;47.536;19.066;2023-05-12T08:47:40;-18621.19;;;14.44;100.00
60583;BME280;46415;47.536;19.066;2023-05-12T08:50:44;-18623.22;;;14.52;100.00
60583;BME280;46415;47.536;19.066;2023-05-12T08:53:49;-18627.59;;;14.68;100.00
60583;BME280;46415;47.536;19.066;2023-05-12T08:56:52;-18618.44;;;14.34;100.00
60583;BME280;46415;47.536;19.066;2023-05-12T09:00:01;-18613.81;;;14.17;100.00
60583;BME280;46415;47.536;19.066;2023-05-12T09:03:05;-18613.38;;;14.15;100.00
60583;BME280;46415;47.536;19.066;2023-05-12T09:06:09;-18610.12;;;14.03;100.00
60583;BME280;46415;47.536;19.066;2023-05-12T09:09:13;-18612.84;;;14.13;100.00
60583;BME280;46415;47.536;19.066;2023-05-12T09:12:17;-18609.03;;;13.99;100.00
60583;BME280;46415;47.536;19.066;2023-05-12T09:15:26;-18604.38;;;13.82;100.00
60583;BME280;46415;47.536;19.066;2023-05-12T09:18:44;-18603.16;;;13.77;100.00
60583;BME280;46415;47.536;19.066;2023-05-12T09:21:48;-18596.19;;;13.52;100.00
60583;BME280;46415;47.536;19.066;2023-05-12T09:24:51;-18592.78;;;13.39;100.00
60583;BME280;46415;47.536;19.066;2023-05-12T09:27:54;-18591.41;;;13.34;100.00
60583;BME280;46415;47.536;19.066;2023-05-12T09:30:58;-18587.72;;;13.20;100.00
60583;BME280;46415;47.536;19.066;2023-05-12T09:34:06;-18583.22;;;13.03;100.00
60583;BME280;46415;47.536;19.066;2023-05-12T09:37:09;-18580.47;;;12.93;100.00
60583;BME280;46415;47.536;19.066;2023-05-12T09:40:15;-18580.59;;;12.94;100.00
60583;BME280;46415;47.536;19.066;2023-05-12T09:43:18;-18574.72;;;12.72;100.00
60583;BME280;46415;47.536;19.066;2023-05-12T09:46:20;-18560.50;;;12.19;100.00
60583;BME280;46415;47.536;19.066;2023-05-12T09:49:24;-18553.81;;;11.95;100.00
60583;BME280;46415;47.536;19.066;2023-05-12T09:52:35;-18548.47;;;11.75;100.00
60583;BME280;46415;47.536;19.066;2023-05-12T09:55:38;-18548.63;;;11.75;100.00
60583;BME280;46415;47.536;19.066;2023-05-12T09:58:43;-18546.69;;;11.68;100.00
60583;BME280;46415;47.536;19.066;2023-05-12T10:01:47;-18547.09;;;11.70;100.00
60583;BME280;46415;47.536;19.066;2023-05-12T10:04:53;-18552.31;;;11.89;100.00
60583;BME280;46415;47.536;19.066;2023-05-12T10:07:59;-18546.44;;;11.67;100.00
60583;BME280;46415;47.536;19.066;2023-05-12T10:11:04;-18540.94;;;11.47;100.00
60583;BME280;46415;47.536;19.066;2023-05-12T10:14:07;-18542.31;;;11.52;100.00
60583;BME280;46415;47.536;19.066;2023-05-12T10:17:12;-18540.81;;;11.46;100.00
60583;BME280;46415;47.536;19.066;2023-05-12T10:20:15;-18537.13;;;11.33;100.00
60583;BME280;46415;47.536;19.066;2023-05-12T10:23:19;-18539.31;;;11.41;100.00
60583;BME280;46415;47.536;19.066;2023-05-12T10:26:22;-18537.13;;;11.33;100.00
60583;BME280;46415;47.536;19.066;2023-05-12T10:29:28;-18537.41;;;11.34;100.00
60583;BME280;46415;47.536;19.066;2023-05-12T10:32:32;-18536.03;;;11.29;100.00
60583;BME280;46415;47.536;19.066;2023-05-12T10:35:36;-18535.22;;;11.26;100.00
60583;BME280;46415;47.536;19.066;2023-05-12T10:38:39;-18538.50;;;11.38;100.00
60583;BME280;46415;47.536;19.066;2023-05-12T10:41:42;-18539.59;;;11.42;100.00
60583;BME280;46415;47.536;19.066;2023-05-12T10:44:50;-18540.69;;;11.46;100.00
60583;BME280;46415;47.536;19.066;2023-05-12T10:48:04;-18541.78;;;11.50;100.00
60583;BME280;46415;47.536;19.066;2023-05-12T10:51:09;-18538.63;;;11.38;100.00
60583;BME280;46415;47.536;19.066;2023-05-12T10:54:19;-18531.91;;;11.14;100.00
60583;BME280;46415;47.536;19.066;2023-05-12T10:57:22;-18525.50;;;10.90;100.00
60583;BME280;46415;47.536;19.066;2023-05-12T11:00:25;-18527.94;;;10.99;100.00
60583;BME280;46415;47.536;19.066;2023-05-12T11:03:31;-18527.81;;;10.98;100.00
60583;BME280;46415;47.536;19.066;2023-05-12T11:06:38;-18529.72;;;11.05;100.00
60583;BME280;46415;47.536;19.066;2023-05-12T11:09:43;-18530.00;;;11.07;100.00
60583;BME280;46415;47.536;19.066;2023-05-12T11:13:01;-18529.31;;;11.04;100.00
60583;BME280;46415;47.536;19.066;2023-05-12T11:16:03;-18529.88;;;11.06;100.00
60583;BME280;46415;47.536;19.066;2023-05-12T11:19:07;-18533.28;;;11.19;100.00
60583;BME280;46415;47.536;19.066;2023-05-12T11:22:10;-18538.75;;;11.39;100.00
60583;BME280;46415;47.536;19.066;2023-05-12T11:25:14;-18545.06;;;11.62;100.00
60583;BME280;46415;47.536;19.066;2023-05-12T11:28:17;-18550.81;;;11.83;100.00
60583;BME280;46415;47.536;19.066;2023-05-12T11:31:20;-18553.13;;;11.92;100.00
60583;BME280;46415;47.536;19.066;2023-05-12T11:34:24;-18549.84;;;11.80;100.00
60583;BME280;46415;47.536;19.066;2023-05-12T11:37:29;-18548.34;;;11.74;100.00
60583;BME280;46415;47.536;19.066;2023-05-12T11:40:39;-18548.34;;;11.74;100.00
60583;BME280;46415;47.536;19.066;2023-05-12T11:43:42;-18544.38;;;11.60;100.00
60583;BME280;46415;47.536;19.066;2023-05-12T11:46:56;-18538.50;;;11.38;100.00
60583;BME280;46415;47.536;19.066;2023-05-12T11:49:59;-18538.75;;;11.39;100.00
60583;BME280;46415;47.536;19.066;2023-05-12T11:53:11;-18539.84;;;11.43;100.00
60583;BME280;46415;47.536;19.066;2023-05-12T11:56:18;-18540.13;;;11.44;100.00
60583;BME280;46415;47.536;19.066;2023-05-12T11:59:31;-18541.62;;;11.50;100.00
60583;BME280;46415;47.536;19.066;2023-05-12T12:02:35;-18541.50;;;11.49;100.00
60583;BME280;46415;47.536;19.066;2023-05-12T12:05:42;-18543.41;;;11.56;100.00
60583;BME280;46415;47.536;19.066;2023-05-12T12:08:54;-18547.53;;;11.71;100.00
60583;BME280;46415;47.536;19.066;2023-05-12T12:11:59;-18548.88;;;11.76;100.00
60583;BME280;46415;47.536;19.066;2023-05-12T12:15:02;-18552.72;;;11.91;100.00
60583;BME280;46415;47.536;19.066;2023-05-12T12:18:05;-18548.34;;;11.74;100.00
60583;BME280;46415;47.536;19.066;2023-05-12T12:21:08;-18548.06;;;11.73;100.00
60583;BME280;46415;47.536;19.066;2023-05-12T12:24:11;-18546.97;;;11.69;100.00
60583;BME280;46415;47.536;19.066;2023-05-12T12:27:16;-18545.06;;;11.62;100.00
60583;BME280;46415;47.536;19.066;2023-05-12T12:30:19;-18543.13;;;11.55;100.00
60583;BME280;46415;47.536;19.066;2023-05-12T12:33:23;-18545.06;;;11.62;100.00
60583;BME280;46415;47.536;19.066;2023-05-12T12:36:26;-18547.66;;;11.72;100.00
60583;BME280;46415;47.536;19.066;2023-05-12T12:39:28;-18544.78;;;11.61;100.00
60583;BME280;46415;47.536;19.066;2023-05-12T12:42:31;-18543.13;;;11.55;100.00
60583;BME280;46415;47.536;19.066;2023-05-12T12:45:34;-18539.03;;;11.40;100.00
60583;BME280;46415;47.536;19.066;2023-05-12T12:48:37;-18540.81;;;11.46;100.00
60583;BME280;46415;47.536;19.066;2023-05-12T12:51:40;-18539.31;;;11.41;100.00
60583;BME280;46415;47.536;19.066;2023-05-12T12:54:48;-18535.63;;;11.27;100.00
60583;BME280;46415;47.536;19.066;2023-05-12T12:57:51;-18533.56;;;11.20;100.00
60583;BME280;46415;47.536;19.066;2023-05-12T13:00:54;-18533.00;;;11.18;100.00
60583;BME280;46415;47.536;19.066;2023-05-12T13:03:57;-18532.19;;;11.15;100.00
60583;BME280;46415;47.536;19.066;2023-05-12T13:07:01;-18533.84;;;11.21;100.00
60583;BME280;46415;47.536;19.066;2023-05-12T13:10:05;-18534.66;;;11.24;100.00
60583;BME280;46415;47.536;19.066;2023-05-12T13:13:08;-18535.63;;;11.27;100.00
60583;BME280;46415;47.536;19.066;2023-05-12T13:16:13;-18533.97;;;11.21;100.00
60583;BME280;46415;47.536;19.066;2023-05-12T13:19:16;-18532.19;;;11.15;100.00
60583;BME280;46415;47.536;19.066;2023-05-12T13:22:19;-18533.16;;;11.18;100.00
60583;BME280;46415;47.536;19.066;2023-05-12T13:25:22;-18531.91;;;11.14;100.00
60583;BME280;46415;47.536;19.066;2023-05-12T13:28:25;-18532.47;;;11.16;100.00
60583;BME280;46415;47.536;19.066;2023-05-12T13:31:28;-18533.28;;;11.19;100.00
60583;BME280;46415;47.536;19.066;2023-05-12T13:34:31;-18533.44;;;11.19;100.00
60583;BME280;46415;47.536;19.066;2023-05-12T13:37:34;-18532.75;;;11.17;100.00
60583;BME280;46415;47.536;19.066;2023-05-12T13:40:36;-18531.78;;;11.13;100.00
60583;BME280;46415;47.536;19.066;2023-05-12T13:43:39;-18531.50;;;11.12;100.00
60583;BME280;46415;47.536;19.066;2023-05-12T13:46:42;-18530.81;;;11.10;100.00
60583;BME280;46415;47.536;19.066;2023-05-12T13:49:45;-18532.06;;;11.14;100.00
60583;BME280;46415;47.536;19.066;2023-05-12T13:52:48;-18531.09;;;11.11;100.00
60583;BME280;46415;47.536;19.066;2023-05-12T13:55:51;-18531.09;;;11.11;100.00
60583;BME280;46415;47.536;19.066;2023-05-12T13:58:53;-18531.91;;;11.14;100.00
60583;BME280;46415;47.536;19.066;2023-05-12T14:01:57;-18531.09;;;11.11;100.00
60583;BME280;46415;47.536;19.066;2023-05-12T14:05:00;-18531.78;;;11.13;100.00
60583;BME280;46415;47.536;19.066;2023-05-12T14:08:03;-18531.09;;;11.11;100.00
60583;BME280;46415;47.536;19.066;2023-05-12T14:11:07;-18528.09;;;10.99;100.00
60583;BME280;46415;47.536;19.066;2023-05-12T14:14:10;-18529.47;;;11.04;100.00
60583;BME280;46415;47.536;19.066;2023-05-12T14:17:13;-18528.38;;;11.00;100.00
60583;BME280;46415;47.536;19.066;2023-05-12T14:20:15;-18528.63;;;11.01;100.00
60583;BME280;46415;47.536;19.066;2023-05-12T14:23:18;-18528.38;;;11.00;100.00
60583;BME280;46415;47.536;19.066;2023-05-12T14:26:21;-18527.12;;;10.96;100.00
60583;BME280;46415;47.536;19.066;2023-05-12T14:29:24;-18525.06;;;10.88;100.00
60583;BME280;46415;47.536;19.066;2023-05-12T14:32:26;-18525.63;;;10.90;100.00
60583;BME280;46415;47.536;19.066;2023-05-12T14:35:29;-18527.12;;;10.96;100.00
60583;BME280;46415;47.536;19.066;2023-05-12T14:38:32;-18524.38;;;10.86;100.00
60583;BME280;46415;47.536;19.066;2023-05-12T14:41:35;-18524.25;;;10.85;100.00
60583;BME280;46415;47.536;19.066;2023-05-12T14:44:38;-18523.03;;;10.81;100.00
60583;BME280;46415;47.536;19.066;2023-05-12T14:47:41;-18523.44;;;10.82;100.00
60583;BME280;46415;47.536;19.066;2023-05-12T14:50:44;-18523.03;;;10.81;100.00
60583;BME280;46415;47.536;19.066;2023-05-12T14:53:50;-18521.53;;;10.75;100.00
60583;BME280;46415;47.536;19.066;2023-05-12T14:56:52;-18522.75;;;10.80;100.00
60583;BME280;46415;47.536;19.066;2023-05-12T14:59:55;-18522.88;;;10.80;100.00
60583;BME280;46415;47.536;19.066;2023-05-12T15:03:00;-18520.69;;;10.72;100.00
60583;BME280;46415;47.536;19.066;2023-05-12T15:06:04;-18521.53;;;10.75;100.00
60583;BME280;46415;47.536;19.066;2023-05-12T15:09:09;-18523.72;;;10.83;100.00
60583;BME280;46415;47.536;19.066;2023-05-12T15:12:12;-18524.94;;;10.88;100.00
60583;BME280;46415;47.536;19.066;2023-05-12T15:15:15;-18523.28;;;10.82;100.00
60583;BME280;46415;47.536;19.066;2023-05-12T15:18:18;-18524.53;;;10.86;100.00
60583;BME280;46415;47.536;19.066;2023-05-12T15:21:20;-18523.97;;;10.84;100.00
60583;BME280;46415;47.536;19.066;2023-05-12T15:24:24;-18522.88;;;10.80;100.00
60583;BME280;46415;47.536;19.066;2023-05-12T15:27:27;-18523.97;;;10.84;100.00
60583;BME280;46415;47.536;19.066;2023-05-12T15:30:30;-18523.56;;;10.83;100.00
60583;BME280;46415;47.536;19.066;2023-05-12T15:33:32;-18524.81;;;10.87;100.00
60583;BME280;46415;47.536;19.066;2023-05-12T15:36:35;-18524.53;;;10.86;100.00